createdAt,value
2019-03-12T00:03:08.962Z,3.1
2019-03-12T00:08:09.083Z,3.1
2019-03-12T00:13:09.088Z,3.1
2019-03-12T00:18:09.119Z,3.1
2019-03-12T00:23:09.173Z,3.2
2019-03-12T00:28:09.194Z,3.2
2019-03-12T00:33:09.098Z,3.2
2019-03-12T00:38:09.160Z,3.2
2019-03-12T00:43:09.199Z,2.9
2019-03-12T00:48:09.123Z,2.7
2019-03-12T00:53:10.186Z,2.6
2019-03-12T00:58:09.196Z,2.6
2019-03-12T01:03:09.227Z,2.5
2019-03-12T01:08:09.156Z,2.5
2019-03-12T01:13:08.962Z,2.4
2019-03-12T01:18:09.127Z,2.4
2019-03-12T01:23:09.159Z,2.4
2019-03-12T01:28:09.003Z,2.4
2019-03-12T01:33:09.127Z,2.4
2019-03-12T01:38:08.992Z,2.4
2019-03-12T01:43:09.197Z,2.4
2019-03-12T01:48:08.974Z,2.4
2019-03-12T01:53:09.128Z,2.4
2019-03-12T01:58:09.197Z,2.4
2019-03-12T02:03:09.244Z,2.4
2019-03-12T02:08:09.153Z,2.4
2019-03-12T02:13:09.204Z,2.4
2019-03-12T02:18:09.240Z,2.4
2019-03-12T02:23:09.269Z,2.5
2019-03-12T02:28:09.042Z,2.5
2019-03-12T02:33:09.240Z,2.5
2019-03-12T02:38:09.275Z,2.6
2019-03-12T02:43:09.194Z,2.6
2019-03-12T02:48:09.240Z,2.6
2019-03-12T02:53:09.274Z,2.6
2019-03-12T02:58:09.196Z,2.6
2019-03-12T03:03:09.236Z,2.6
2019-03-12T03:08:09.279Z,2.7
2019-03-12T03:13:09.060Z,2.7
2019-03-12T03:18:09.374Z,2.7
2019-03-12T03:23:09.201Z,2.8
2019-03-12T03:28:09.267Z,2.8
2019-03-12T03:33:09.237Z,2.8
2019-03-12T03:38:09.272Z,2.9
2019-03-12T03:43:09.199Z,2.9
2019-03-12T03:48:09.235Z,2.9
2019-03-12T03:53:09.274Z,2.9
2019-03-12T03:58:09.210Z,2.9
2019-03-12T04:03:09.246Z,2.9
2019-03-12T04:08:09.282Z,2.9
2019-03-12T04:13:09.103Z,2.9
2019-03-12T04:18:09.102Z,2.9
2019-03-12T04:23:09.302Z,2.9
2019-03-12T04:28:09.096Z,2.9
2019-03-12T04:33:09.229Z,2.9
2019-03-12T04:38:09.084Z,2.9
2019-03-12T04:43:09.310Z,3
2019-03-12T04:48:09.237Z,3
2019-03-12T04:53:09.240Z,3
2019-03-12T04:58:09.306Z,3
2019-03-12T05:03:09.130Z,3
2019-03-12T05:08:09.095Z,3
2019-03-12T05:13:09.118Z,3
2019-03-12T05:18:09.125Z,3
2019-03-12T05:23:09.262Z,3
2019-03-12T05:28:09.314Z,3
2019-03-12T05:33:09.257Z,3
2019-03-12T05:38:09.268Z,3
2019-03-12T05:43:09.300Z,3
2019-03-12T05:48:09.265Z,3
2019-03-12T05:53:09.143Z,3
2019-03-12T05:58:09.304Z,3.1
2019-03-12T06:03:09.270Z,3.1
2019-03-12T06:08:09.276Z,3.1
2019-03-12T06:13:09.151Z,3.1
2019-03-12T06:18:09.150Z,3.1
2019-03-12T06:23:09.285Z,3.2
2019-03-12T06:28:09.308Z,3.2
2019-03-12T06:33:09.291Z,3.2
2019-03-12T06:38:09.291Z,3.2
2019-03-12T06:43:09.308Z,3.2
2019-03-12T06:48:09.177Z,3.2
2019-03-12T06:53:09.284Z,3.3
2019-03-12T06:58:09.185Z,3.3
2019-03-12T07:03:09.180Z,3.3
2019-03-12T07:08:12.194Z,3.3
2019-03-12T07:13:09.314Z,3.3
2019-03-12T07:18:09.341Z,3.4
2019-03-12T07:23:09.307Z,3.4
2019-03-12T07:28:09.312Z,3.5
2019-03-12T07:33:09.342Z,3.5
2019-03-12T07:38:09.194Z,3.5
2019-03-12T07:43:09.327Z,3.6
2019-03-12T07:48:09.344Z,3.6
2019-03-12T07:53:09.325Z,3.6
2019-03-12T07:58:09.316Z,3.6
2019-03-12T08:03:09.214Z,3.6
2019-03-12T08:08:09.207Z,3.6
2019-03-12T08:13:09.343Z,3.7
2019-03-12T08:18:09.242Z,3.7
2019-03-12T08:23:09.298Z,3.7
2019-03-12T08:28:09.423Z,3.7
2019-03-12T08:33:09.470Z,3.8
2019-03-12T08:38:09.238Z,3.8
2019-03-12T08:43:09.431Z,3.9
2019-03-12T08:48:12.507Z,3.9
2019-03-12T08:53:09.346Z,4
2019-03-12T08:58:09.442Z,4.1
2019-03-12T09:03:09.467Z,4.1
2019-03-12T09:08:09.381Z,4.2
2019-03-12T09:13:09.245Z,4.2
2019-03-12T09:18:09.456Z,4.2
2019-03-12T09:23:09.251Z,4.3
2019-03-12T09:28:09.424Z,4.4
2019-03-12T09:33:09.459Z,4.5
2019-03-12T09:38:09.500Z,4.5
2019-03-12T09:43:09.427Z,4.6
2019-03-12T09:48:09.481Z,4.7
2019-03-12T09:53:09.396Z,4.8
2019-03-12T09:58:09.418Z,4.9
2019-03-12T10:03:09.281Z,5
2019-03-12T10:08:09.507Z,5.2
2019-03-12T10:13:09.404Z,5.3
2019-03-12T10:18:09.456Z,5.3
2019-03-12T10:23:09.318Z,5.5
2019-03-12T10:28:09.388Z,5.7
2019-03-12T10:33:09.460Z,5.9
2019-03-12T10:38:09.497Z,6.1
2019-03-12T10:43:09.422Z,6.3
2019-03-12T10:48:09.454Z,6.3
2019-03-12T10:53:09.498Z,6.4
2019-03-12T10:58:09.429Z,6.6
2019-03-12T11:03:09.467Z,6.6
2019-03-12T11:08:09.514Z,6.7
2019-03-12T11:13:09.325Z,6.8
2019-03-12T11:18:09.454Z,6.9
2019-03-12T11:23:09.488Z,6.8
2019-03-12T11:28:09.454Z,6.7
2019-03-12T11:33:09.458Z,6.6
2019-03-12T11:38:09.829Z,6.6
2019-03-12T11:43:09.348Z,6.5
2019-03-12T11:48:09.453Z,6.4
2019-03-12T11:53:09.327Z,6.4
2019-03-12T11:58:09.574Z,6.3
2019-03-12T12:03:09.569Z,6.3
2019-03-12T12:08:09.501Z,6.4
2019-03-12T12:13:09.547Z,6.4
2019-03-12T12:18:09.581Z,6.5
2019-03-12T12:23:09.353Z,6.5
2019-03-12T12:28:09.561Z,6.7
2019-03-12T12:33:09.474Z,6.9
2019-03-12T12:38:09.495Z,6.9
2019-03-12T12:43:09.528Z,7
2019-03-12T12:48:09.398Z,7.1
2019-03-12T12:53:09.493Z,7
2019-03-12T12:58:09.526Z,7
2019-03-12T13:03:09.574Z,7.1
2019-03-12T13:08:09.616Z,7
2019-03-12T13:13:09.499Z,7.1
2019-03-12T13:18:09.585Z,7.2
2019-03-12T13:23:09.607Z,7.4
2019-03-12T13:28:09.531Z,7.5
2019-03-12T13:33:09.578Z,7.6
2019-03-12T13:38:09.612Z,7.6
2019-03-12T13:43:09.505Z,7.6
2019-03-12T13:48:09.400Z,7.6
2019-03-12T13:53:09.618Z,7.6
2019-03-12T13:58:09.529Z,7.6
2019-03-12T14:03:09.566Z,7.6
2019-03-12T14:08:09.415Z,7.7
2019-03-12T14:13:09.497Z,7.7
2019-03-12T14:18:09.566Z,7.7
2019-03-12T14:23:09.402Z,7.7
2019-03-12T14:28:09.656Z,7.6
2019-03-12T14:33:09.388Z,7.8
2019-03-12T14:38:09.616Z,8
2019-03-12T14:43:09.520Z,8.2
2019-03-12T14:48:09.519Z,8.4
2019-03-12T14:53:21.202Z,8.4
2019-03-12T14:58:09.549Z,8.4
2019-03-12T15:03:09.450Z,8.4
2019-03-12T15:08:09.640Z,8.4
2019-03-12T15:13:09.614Z,8.3
2019-03-12T15:18:09.449Z,8.3
2019-03-12T15:23:09.610Z,8.2
2019-03-12T15:28:09.654Z,8.2
2019-03-12T15:33:09.609Z,8.1
2019-03-12T15:38:09.455Z,8
2019-03-12T15:43:09.678Z,7.9
2019-03-12T15:48:09.519Z,7.8
2019-03-12T15:53:09.570Z,7.7
2019-03-12T15:58:09.413Z,7.5
2019-03-12T16:03:09.462Z,7.4
2019-03-12T16:08:09.461Z,7.4
2019-03-12T16:13:09.509Z,7.3
2019-03-12T16:18:09.458Z,7.1
2019-03-12T16:23:09.469Z,7
2019-03-12T16:28:09.475Z,6.9
2019-03-12T16:33:09.554Z,6.7
2019-03-12T16:38:09.500Z,6.6
2019-03-12T16:43:09.477Z,6.5
2019-03-12T16:48:09.499Z,6.3
2019-03-12T16:53:09.466Z,6.1
2019-03-12T16:58:09.485Z,5.9
2019-03-12T17:03:09.457Z,5.7
2019-03-12T17:08:09.638Z,5.5
2019-03-12T17:13:09.457Z,5.3
2019-03-12T17:18:09.507Z,5
2019-03-12T17:23:09.528Z,4.8
2019-03-12T17:28:09.562Z,4.6
2019-03-12T17:33:09.464Z,4.4
2019-03-12T17:38:09.545Z,4.2
2019-03-12T17:43:09.528Z,4
2019-03-12T17:48:09.518Z,3.8
2019-03-12T17:53:09.517Z,3.7
2019-03-12T17:58:09.524Z,3.5
2019-03-12T18:03:09.525Z,3.3
2019-03-12T18:08:09.521Z,3.2
2019-03-12T18:13:09.516Z,3
2019-03-12T18:18:09.554Z,2.9
2019-03-12T18:23:09.759Z,2.7
2019-03-12T18:28:09.534Z,2.6
2019-03-12T18:33:09.527Z,2.5
2019-03-12T18:38:09.751Z,2.4
2019-03-12T18:43:09.801Z,2.3
2019-03-12T18:48:09.555Z,2.1
2019-03-12T18:53:09.540Z,2
2019-03-12T18:58:09.565Z,1.9
2019-03-12T19:03:09.546Z,1.8
2019-03-12T19:08:12.447Z,1.7
2019-03-12T19:13:09.509Z,1.6
2019-03-12T19:18:09.552Z,1.4
2019-03-12T19:23:09.570Z,1.4
2019-03-12T19:28:09.600Z,1.3
2019-03-12T19:33:09.572Z,1.2
2019-03-12T19:38:09.588Z,1.1
2019-03-12T19:43:09.792Z,1
2019-03-12T19:48:09.609Z,0.9
2019-03-12T19:53:09.633Z,0.9
2019-03-12T19:58:09.604Z,0.8
2019-03-12T20:03:14.421Z,0.8
2019-03-12T20:08:09.610Z,0.8
2019-03-12T20:13:09.542Z,0.7
2019-03-12T20:18:09.746Z,0.6
2019-03-12T20:23:09.679Z,0.6
2019-03-12T20:28:09.616Z,0.5
2019-03-12T20:33:10.706Z,0.5
2019-03-12T20:38:09.858Z,0.4
2019-03-12T20:43:09.593Z,0.4
2019-03-12T20:48:09.863Z,0.4
2019-03-12T20:53:09.615Z,0.4
2019-03-12T20:58:09.606Z,0.4
2019-03-12T21:03:09.669Z,0.4
2019-03-12T21:08:09.625Z,0.5
2019-03-12T21:13:10.779Z,0.5
2019-03-12T21:18:09.638Z,0.5
2019-03-12T21:23:10.104Z,0.6
2019-03-12T21:28:09.642Z,0.6
2019-03-12T21:33:14.972Z,0.6
2019-03-12T21:38:09.638Z,0.6
2019-03-12T21:43:10.336Z,0.7
2019-03-12T21:48:09.816Z,0.7
2019-03-12T21:53:09.940Z,0.7
2019-03-12T21:58:09.771Z,0.7
2019-03-12T22:03:09.654Z,0.7
2019-03-12T22:08:09.649Z,0.7
2019-03-12T22:13:09.649Z,0.7
2019-03-12T22:18:09.791Z,0.7
2019-03-12T22:23:09.620Z,0.7
2019-03-12T22:28:09.865Z,0.7
2019-03-12T22:33:09.677Z,0.7
2019-03-12T22:38:09.653Z,0.7
2019-03-12T22:48:09.773Z,0.7
2019-03-12T22:53:09.868Z,0.7
2019-03-12T22:58:09.780Z,0.7
2019-03-12T23:03:09.819Z,0.7
2019-03-12T23:08:09.853Z,0.7
2019-03-12T23:13:09.898Z,0.7
2019-03-12T23:18:09.812Z,0.7
2019-03-12T23:23:09.696Z,0.6
2019-03-12T23:28:09.777Z,0.6
2019-03-12T23:33:09.815Z,0.5
2019-03-12T23:38:09.856Z,0.4
2019-03-12T23:43:09.893Z,0.3
2019-03-12T23:48:09.825Z,0.3
2019-03-12T23:53:09.803Z,0.2
2019-03-12T23:58:09.889Z,0.1
